Etusivu
METAR-TAF:

METAR-TAF

Lentoasemat :

Ronnebyn lentoasema

Ronneby, Ruotsi

Leveyspiiri: 56-16N, Pituuspiiri: 015-17E, korkeus merenpinnasta: 58 m

Tämänhetkinen sää

Tämä raportti tehtiin 39 minuuttia sitten, kello 17.50 UTC
Tuuli 11 kn koillisesta
Lämpötila 2°C
Kosteus 93%
Ilmanpaine 1032 hPa
Näkyvyys 10 km tai enemmän
Muutamia pilviä 1900 ft:n korkeudessa

METAR: ESDF 191750Z 05011KT 9999 FEW019 02/01 Q1032

Aika: 19:29 (18:29 UTC)

Sääennuste

Tämä raportti tehtiin 59 minuuttia sitten, kello 17.30 UTC
Ennuste voimassa 19. päivästä klo 18 UTC - 19. päivään klo 23 UTC
Tuuli 8 kn idästä/koillisesta
Näkyvyys 10 km tai enemmän
Hajonneita pilviä 2500 ft:n korkeudessa

TAF: ESDF 191730Z 1918/1923 06008KT 9999 BKN025

Säähavainnot ja -ennusteet yli 4000 lentoasemalta (METAR- ja TAF-raportit).

Käytössä olevat sääasemat on merkitty karttaan keltaisilla ja punaisilla pisteillä.

Aseta hiiri pisteen päälle nähdäksesi sääaseman nimen.

Klikkaa sitten nähdäksesi säähavainnot ja -ennusteet.

Kartan vaihtaminen: klikkaa mustalla rastilla varustettuja vihreitä pisteitä, niin voit zoomata sisään; viivalla varustettua vihreää pistettä, niin voit zoomata ulos tai vihreitä nuolia, niin pääset viereisille kartoille.


METAR-TAF: